sensor_id;sensor_type;location;lat;lon;timestamp;pressure;altitude;pressure_sealevel;temperature;humidity
39275;BME280;24980;48.874;2.332;2022-07-01T00:01:33;101204.19;;;24.45;42.91
39275;BME280;24980;48.874;2.332;2022-07-01T00:04:07;101201.31;;;24.46;42.92
39275;BME280;24980;48.874;2.332;2022-07-01T00:06:39;101204.95;;;24.47;42.96
39275;BME280;24980;48.874;2.332;2022-07-01T00:11:36;101205.20;;;24.46;43.03
39275;BME280;24980;48.874;2.332;2022-07-01T00:14:05;101204.48;;;24.47;43.08
39275;BME280;24980;48.874;2.332;2022-07-01T00:16:35;101205.54;;;24.46;43.14
39275;BME280;24980;48.874;2.332;2022-07-01T00:19:06;101203.00;;;24.46;43.19
39275;BME280;24980;48.874;2.332;2022-07-01T00:21:39;101210.04;;;24.45;43.26
39275;BME280;24980;48.874;2.332;2022-07-01T00:24:06;101209.78;;;24.45;43.33
39275;BME280;24980;48.874;2.332;2022-07-01T00:26:37;101209.53;;;24.45;43.38
39275;BME280;24980;48.874;2.332;2022-07-01T00:29:07;101213.19;;;24.44;43.43
39275;BME280;24980;48.874;2.332;2022-07-01T00:31:37;101215.77;;;24.43;43.46
39275;BME280;24980;48.874;2.332;2022-07-01T00:34:07;101216.20;;;24.42;43.51
39275;BME280;24980;48.874;2.332;2022-07-01T00:36:38;101220.10;;;24.41;43.54
39275;BME280;24980;48.874;2.332;2022-07-01T00:39:08;101223.08;;;24.40;43.56
39275;BME280;24980;48.874;2.332;2022-07-01T00:41:38;101225.23;;;24.40;43.58
39275;BME280;24980;48.874;2.332;2022-07-01T00:44:35;101226.41;;;24.39;43.59
39275;BME280;24980;48.874;2.332;2022-07-01T00:46:39;101224.56;;;24.38;43.62
39275;BME280;24980;48.874;2.332;2022-07-01T00:49:09;101223.97;;;24.38;43.63
39275;BME280;24980;48.874;2.332;2022-07-01T00:51:39;101225.33;;;24.37;43.64
39275;BME280;24980;48.874;2.332;2022-07-01T00:54:10;101226.38;;;24.37;43.64
39275;BME280;24980;48.874;2.332;2022-07-01T00:56:40;101228.25;;;24.36;43.64
39275;BME280;24980;48.874;2.332;2022-07-01T00:59:10;101227.08;;;24.35;43.63
39275;BME280;24980;48.874;2.332;2022-07-01T01:01:41;101229.78;;;24.35;43.63
39275;BME280;24980;48.874;2.332;2022-07-01T01:04:11;101228.52;;;24.34;43.62
39275;BME280;24980;48.874;2.332;2022-07-01T01:06:42;101228.47;;;24.34;43.62
39275;BME280;24980;48.874;2.332;2022-07-01T01:09:12;101232.71;;;24.33;43.61
39275;BME280;24980;48.874;2.332;2022-07-01T01:11:42;101238.98;;;24.33;43.60
39275;BME280;24980;48.874;2.332;2022-07-01T01:14:12;101239.23;;;24.32;43.59
39275;BME280;24980;48.874;2.332;2022-07-01T01:16:42;101243.64;;;24.32;43.60
39275;BME280;24980;48.874;2.332;2022-07-01T01:19:12;101241.11;;;24.32;43.60
39275;BME280;24980;48.874;2.332;2022-07-01T01:21:44;101241.95;;;24.31;43.61
39275;BME280;24980;48.874;2.332;2022-07-01T01:24:16;101245.09;;;24.31;43.63
39275;BME280;24980;48.874;2.332;2022-07-01T01:26:43;101247.72;;;24.31;43.63
39275;BME280;24980;48.874;2.332;2022-07-01T01:29:17;101250.43;;;24.31;43.63
39275;BME280;24980;48.874;2.332;2022-07-01T01:31:45;101251.57;;;24.30;43.64
39275;BME280;24980;48.874;2.332;2022-07-01T01:34:15;101254.02;;;24.30;43.65
39275;BME280;24980;48.874;2.332;2022-07-01T01:36:46;101257.16;;;24.30;43.67
39275;BME280;24980;48.874;2.332;2022-07-01T01:39:15;101260.63;;;24.30;43.70
39275;BME280;24980;48.874;2.332;2022-07-01T01:41:46;101263.17;;;24.30;43.71
39275;BME280;24980;48.874;2.332;2022-07-01T01:44:16;101265.59;;;24.31;43.71
39275;BME280;24980;48.874;2.332;2022-07-01T01:46:46;101265.12;;;24.30;43.69
39275;BME280;24980;48.874;2.332;2022-07-01T01:49:17;101265.55;;;24.30;43.67
39275;BME280;24980;48.874;2.332;2022-07-01T01:51:46;101264.37;;;24.29;43.65
39275;BME280;24980;48.874;2.332;2022-07-01T01:54:16;101266.48;;;24.29;43.65
39275;BME280;24980;48.874;2.332;2022-07-01T01:56:46;101264.16;;;24.27;43.63
39275;BME280;24980;48.874;2.332;2022-07-01T01:59:17;101272.04;;;24.27;43.63
39275;BME280;24980;48.874;2.332;2022-07-01T02:01:47;101274.92;;;24.27;43.60
39275;BME280;24980;48.874;2.332;2022-07-01T02:04:17;101277.29;;;24.27;43.59
39275;BME280;24980;48.874;2.332;2022-07-01T02:06:48;101277.30;;;24.26;43.58
39275;BME280;24980;48.874;2.332;2022-07-01T02:09:17;101278.58;;;24.25;43.58
39275;BME280;24980;48.874;2.332;2022-07-01T02:11:47;101280.48;;;24.24;43.58
39275;BME280;24980;48.874;2.332;2022-07-01T02:14:17;101281.62;;;24.24;43.58
39275;BME280;24980;48.874;2.332;2022-07-01T02:16:47;101280.14;;;24.24;43.57
39275;BME280;24980;48.874;2.332;2022-07-01T02:19:17;101276.25;;;24.23;43.58
39275;BME280;24980;48.874;2.332;2022-07-01T02:21:47;101277.61;;;24.23;43.58
39275;BME280;24980;48.874;2.332;2022-07-01T02:24:18;101281.67;;;24.23;43.57
39275;BME280;24980;48.874;2.332;2022-07-01T02:26:48;101283.11;;;24.22;43.58
39275;BME280;24980;48.874;2.332;2022-07-01T02:29:18;101284.64;;;24.21;43.56
39275;BME280;24980;48.874;2.332;2022-07-01T02:31:48;101289.00;;;24.21;43.56
39275;BME280;24980;48.874;2.332;2022-07-01T02:34:19;101287.30;;;24.21;43.56
39275;BME280;24980;48.874;2.332;2022-07-01T02:36:49;101295.69;;;24.20;43.55
39275;BME280;24980;48.874;2.332;2022-07-01T02:39:22;101296.03;;;24.20;43.55
39275;BME280;24980;48.874;2.332;2022-07-01T02:41:49;101292.90;;;24.20;43.55
39275;BME280;24980;48.874;2.332;2022-07-01T02:44:19;101295.78;;;24.19;43.55
39275;BME280;24980;48.874;2.332;2022-07-01T02:46:49;101299.52;;;24.19;43.55
39275;BME280;24980;48.874;2.332;2022-07-01T02:49:19;101296.16;;;24.18;43.55
39275;BME280;24980;48.874;2.332;2022-07-01T02:51:49;101301.12;;;24.18;43.55
39275;BME280;24980;48.874;2.332;2022-07-01T02:54:19;101303.19;;;24.17;43.55
39275;BME280;24980;48.874;2.332;2022-07-01T02:56:49;101303.11;;;24.17;43.54
39275;BME280;24980;48.874;2.332;2022-07-01T02:59:19;101307.60;;;24.16;43.54
39275;BME280;24980;48.874;2.332;2022-07-01T03:01:49;101300.53;;;24.14;43.52
39275;BME280;24980;48.874;2.332;2022-07-01T03:04:21;101304.77;;;24.14;43.52
39275;BME280;24980;48.874;2.332;2022-07-01T03:06:50;101308.83;;;24.14;43.52
39275;BME280;24980;48.874;2.332;2022-07-01T03:09:20;101302.23;;;24.13;43.54
39275;BME280;24980;48.874;2.332;2022-07-01T03:11:50;101300.96;;;24.12;43.52
39275;BME280;24980;48.874;2.332;2022-07-01T03:14:20;101304.35;;;24.12;43.51
39275;BME280;24980;48.874;2.332;2022-07-01T03:16:50;101301.22;;;24.11;43.51
39275;BME280;24980;48.874;2.332;2022-07-01T03:19:20;101302.50;;;24.10;43.51
39275;BME280;24980;48.874;2.332;2022-07-01T03:21:50;101304.61;;;24.11;43.51
39275;BME280;24980;48.874;2.332;2022-07-01T03:24:20;101308.43;;;24.10;43.51
39275;BME280;24980;48.874;2.332;2022-07-01T03:26:50;101309.36;;;24.10;43.50
39275;BME280;24980;48.874;2.332;2022-07-01T03:29:20;101314.53;;;24.09;43.51
39275;BME280;24980;48.874;2.332;2022-07-01T03:31:50;101311.99;;;24.08;43.51
39275;BME280;24980;48.874;2.332;2022-07-01T03:34:20;101320.55;;;24.09;43.54
39275;BME280;24980;48.874;2.332;2022-07-01T03:36:50;101319.69;;;24.10;43.59
39275;BME280;24980;48.874;2.332;2022-07-01T03:39:20;101320.80;;;24.10;43.62
39275;BME280;24980;48.874;2.332;2022-07-01T03:41:55;101323.67;;;24.10;43.64
39275;BME280;24980;48.874;2.332;2022-07-01T03:44:25;101333.58;;;24.10;43.64
39275;BME280;24980;48.874;2.332;2022-07-01T03:46:51;101332.39;;;24.10;43.64
39275;BME280;24980;48.874;2.332;2022-07-01T03:49:22;101334.94;;;24.09;43.62
39275;BME280;24980;48.874;2.332;2022-07-01T03:51:52;101339.85;;;24.09;43.60
39275;BME280;24980;48.874;2.332;2022-07-01T03:54:22;101343.92;;;24.08;43.58
39275;BME280;24980;48.874;2.332;2022-07-01T03:56:52;101343.19;;;24.08;43.56
39275;BME280;24980;48.874;2.332;2022-07-01T03:59:22;101345.56;;;24.07;43.55
39275;BME280;24980;48.874;2.332;2022-07-01T04:01:55;101348.45;;;24.07;43.53
39275;BME280;24980;48.874;2.332;2022-07-01T04:04:23;101346.50;;;24.06;43.52
39275;BME280;24980;48.874;2.332;2022-07-01T04:06:54;101348.78;;;24.06;43.50
39275;BME280;24980;48.874;2.332;2022-07-01T04:09:25;101353.36;;;24.05;43.49
39275;BME280;24980;48.874;2.332;2022-07-01T04:11:55;101359.75;;;24.05;43.48
39275;BME280;24980;48.874;2.332;2022-07-01T04:14:25;101358.91;;;24.04;43.47
39275;BME280;24980;48.874;2.332;2022-07-01T04:16:55;101365.85;;;24.04;43.47
39275;BME280;24980;48.874;2.332;2022-07-01T04:19:29;101360.94;;;24.03;43.46
39275;BME280;24980;48.874;2.332;2022-07-01T04:21:56;101360.61;;;24.02;43.46
39275;BME280;24980;48.874;2.332;2022-07-01T04:24:31;101361.79;;;24.02;43.46
39275;BME280;24980;48.874;2.332;2022-07-01T04:27:03;101363.23;;;24.02;43.44
39275;BME280;24980;48.874;2.332;2022-07-01T04:29:30;101363.02;;;24.01;43.46
39275;BME280;24980;48.874;2.332;2022-07-01T04:31:59;101367.08;;;24.01;43.43
39275;BME280;24980;48.874;2.332;2022-07-01T04:34:29;101367.67;;;24.00;43.43
39275;BME280;24980;48.874;2.332;2022-07-01T04:36:59;101368.94;;;24.01;43.43
39275;BME280;24980;48.874;2.332;2022-07-01T04:39:34;101370.97;;;24.00;43.43
39275;BME280;24980;48.874;2.332;2022-07-01T04:42:00;101374.36;;;24.00;43.43
39275;BME280;24980;48.874;2.332;2022-07-01T04:44:35;101370.47;;;23.99;43.42
39275;BME280;24980;48.874;2.332;2022-07-01T04:47:04;101377.50;;;23.99;43.41
39275;BME280;24980;48.874;2.332;2022-07-01T04:49:33;101379.31;;;23.98;43.41
39275;BME280;24980;48.874;2.332;2022-07-01T04:52:04;101382.78;;;23.98;43.42
39275;BME280;24980;48.874;2.332;2022-07-01T04:54:35;101381.27;;;23.97;43.41
39275;BME280;24980;48.874;2.332;2022-07-01T04:57:06;101384.40;;;23.97;43.41
39275;BME280;24980;48.874;2.332;2022-07-01T04:59:33;101384.31;;;23.96;43.41
39275;BME280;24980;48.874;2.332;2022-07-01T05:02:03;101389.69;;;23.95;43.42
39275;BME280;24980;48.874;2.332;2022-07-01T05:04:33;101394.25;;;23.95;43.42
39275;BME280;24980;48.874;2.332;2022-07-01T05:07:03;101391.46;;;23.95;43.42
39275;BME280;24980;48.874;2.332;2022-07-01T05:09:33;101397.73;;;23.94;43.42
39275;BME280;24980;48.874;2.332;2022-07-01T05:12:04;101398.33;;;23.94;43.40
39275;BME280;24980;48.874;2.332;2022-07-01T05:14:34;101396.97;;;23.94;43.40
39275;BME280;24980;48.874;2.332;2022-07-01T05:17:04;101401.80;;;23.93;43.40
39275;BME280;24980;48.874;2.332;2022-07-01T05:19:34;101400.87;;;23.93;43.39
39275;BME280;24980;48.874;2.332;2022-07-01T05:22:04;101400.02;;;23.92;43.40
39275;BME280;24980;48.874;2.332;2022-07-01T05:24:34;101398.50;;;23.92;43.40
39275;BME280;24980;48.874;2.332;2022-07-01T05:27:04;101395.15;;;23.92;43.40
39275;BME280;24980;48.874;2.332;2022-07-01T05:29:34;101395.15;;;23.92;43.40
39275;BME280;24980;48.874;2.332;2022-07-01T05:32:05;101395.73;;;23.91;43.41
39275;BME280;24980;48.874;2.332;2022-07-01T05:34:34;101396.67;;;23.91;43.40
39275;BME280;24980;48.874;2.332;2022-07-01T05:37:05;101393.96;;;23.91;43.41
39275;BME280;24980;48.874;2.332;2022-07-01T05:39:34;101399.05;;;23.91;43.41
39275;BME280;24980;48.874;2.332;2022-07-01T05:42:05;101399.80;;;23.90;43.41
39275;BME280;24980;48.874;2.332;2022-07-01T05:44:35;101406.16;;;23.89;43.41
39275;BME280;24980;48.874;2.332;2022-07-01T05:47:06;101404.97;;;23.89;43.42
39275;BME280;24980;48.874;2.332;2022-07-01T05:49:35;101408.91;;;23.88;43.42
39275;BME280;24980;48.874;2.332;2022-07-01T05:52:05;101406.95;;;23.88;43.44
39275;BME280;24980;48.874;2.332;2022-07-01T05:54:36;101405.01;;;23.88;43.48
39275;BME280;24980;48.874;2.332;2022-07-01T05:57:07;101405.73;;;23.91;43.51
39275;BME280;24980;48.874;2.332;2022-07-01T05:59:36;101406.37;;;23.93;43.53
39275;BME280;24980;48.874;2.332;2022-07-01T06:02:07;101407.55;;;23.95;43.53
39275;BME280;24980;48.874;2.332;2022-07-01T06:04:37;101409.72;;;23.96;43.52
39275;BME280;24980;48.874;2.332;2022-07-01T06:07:07;101415.85;;;23.93;43.54
39275;BME280;24980;48.874;2.332;2022-07-01T06:09:38;101416.73;;;23.89;43.56
39275;BME280;24980;48.874;2.332;2022-07-01T06:12:08;101419.27;;;23.85;43.56
39275;BME280;24980;48.874;2.332;2022-07-01T06:14:38;101418.89;;;23.80;43.56
39275;BME280;24980;48.874;2.332;2022-07-01T06:17:09;101418.96;;;23.75;43.54
39275;BME280;24980;48.874;2.332;2022-07-01T06:19:39;101422.12;;;23.72;43.50
39275;BME280;24980;48.874;2.332;2022-07-01T06:22:10;101418.66;;;23.70;43.46
39275;BME280;24980;48.874;2.332;2022-07-01T06:24:40;101422.67;;;23.69;43.41
39275;BME280;24980;48.874;2.332;2022-07-01T06:27:10;101423.05;;;23.66;43.37
39275;BME280;24980;48.874;2.332;2022-07-01T06:29:40;101425.42;;;23.65;43.33
39275;BME280;24980;48.874;2.332;2022-07-01T06:32:10;101421.36;;;23.64;43.30
39275;BME280;24980;48.874;2.332;2022-07-01T06:34:40;101428.92;;;23.63;43.26
39275;BME280;24980;48.874;2.332;2022-07-01T06:37:10;101429.69;;;23.61;43.24
39275;BME280;24980;48.874;2.332;2022-07-01T06:39:40;101431.92;;;23.58;43.21
39275;BME280;24980;48.874;2.332;2022-07-01T06:42:11;101429.00;;;23.55;43.22
39275;BME280;24980;48.874;2.332;2022-07-01T06:44:44;101432.16;;;23.53;43.21
39275;BME280;24980;48.874;2.332;2022-07-01T06:47:22;101435.46;;;23.52;43.18
39275;BME280;24980;48.874;2.332;2022-07-01T06:52:16;101434.34;;;23.47;43.17
39275;BME280;24980;48.874;2.332;2022-07-01T06:54:50;101441.20;;;23.44;43.14
39275;BME280;24980;48.874;2.332;2022-07-01T06:57:13;101436.91;;;23.42;43.12
39275;BME280;24980;48.874;2.332;2022-07-01T06:59:46;101443.26;;;23.43;43.07
39275;BME280;24980;48.874;2.332;2022-07-01T07:02:13;101442.08;;;23.40;43.05
39275;BME280;24980;48.874;2.332;2022-07-01T07:04:44;101444.64;;;23.36;43.03
39275;BME280;24980;48.874;2.332;2022-07-01T07:07:17;101444.22;;;23.35;43.01
39275;BME280;24980;48.874;2.332;2022-07-01T07:09:48;101445.55;;;23.31;42.99
39275;BME280;24980;48.874;2.332;2022-07-01T07:12:15;101439.80;;;23.28;42.98
39275;BME280;24980;48.874;2.332;2022-07-01T07:14:46;101448.23;;;23.22;42.95
39275;BME280;24980;48.874;2.332;2022-07-01T07:17:17;101445.25;;;23.16;42.91
39275;BME280;24980;48.874;2.332;2022-07-01T07:19:48;101446.77;;;23.16;42.84
39275;BME280;24980;48.874;2.332;2022-07-01T07:22:20;101448.72;;;23.17;42.77
39275;BME280;24980;48.874;2.332;2022-07-01T07:24:48;101439.84;;;23.18;42.71
39275;BME280;24980;48.874;2.332;2022-07-01T07:27:18;101438.82;;;23.18;42.67
39275;BME280;24980;48.874;2.332;2022-07-01T07:29:48;101438.40;;;23.18;42.66
39275;BME280;24980;48.874;2.332;2022-07-01T07:32:18;101440.88;;;23.23;42.60
39275;BME280;24980;48.874;2.332;2022-07-01T07:34:49;101435.31;;;23.29;42.54
39275;BME280;24980;48.874;2.332;2022-07-01T07:37:20;101437.15;;;23.34;42.50
39275;BME280;24980;48.874;2.332;2022-07-01T07:39:50;101439.95;;;23.38;42.47
39275;BME280;24980;48.874;2.332;2022-07-01T07:42:20;101434.46;;;23.42;42.46
39275;BME280;24980;48.874;2.332;2022-07-01T07:44:51;101431.33;;;23.43;42.47
39275;BME280;24980;48.874;2.332;2022-07-01T07:47:21;101434.43;;;23.46;42.48
39275;BME280;24980;48.874;2.332;2022-07-01T07:49:57;101435.02;;;23.47;42.49
39275;BME280;24980;48.874;2.332;2022-07-01T07:52:21;101432.95;;;23.47;42.52
39275;BME280;24980;48.874;2.332;2022-07-01T07:54:51;101435.58;;;23.49;42.54
39275;BME280;24980;48.874;2.332;2022-07-01T07:57:22;101437.44;;;23.50;42.55
39275;BME280;24980;48.874;2.332;2022-07-01T07:59:52;101438.42;;;23.51;42.58
39275;BME280;24980;48.874;2.332;2022-07-01T08:02:23;101435.97;;;23.51;42.61
39275;BME280;24980;48.874;2.332;2022-07-01T08:04:53;101440.11;;;23.52;42.64
39275;BME280;24980;48.874;2.332;2022-07-01T08:07:23;101442.83;;;23.53;42.67
39275;BME280;24980;48.874;2.332;2022-07-01T08:09:54;101443.05;;;23.54;42.68
39275;BME280;24980;48.874;2.332;2022-07-01T08:12:24;101444.48;;;23.54;42.70
39275;BME280;24980;48.874;2.332;2022-07-01T08:14:54;101445.41;;;23.55;42.70
39275;BME280;24980;48.874;2.332;2022-07-01T08:17:28;101444.82;;;23.55;42.72
39275;BME280;24980;48.874;2.332;2022-07-01T08:19:55;101443.89;;;23.55;42.72
39275;BME280;24980;48.874;2.332;2022-07-01T08:22:25;101447.27;;;23.55;42.75
39275;BME280;24980;48.874;2.332;2022-07-01T08:24:55;101452.77;;;23.54;42.77
39275;BME280;24980;48.874;2.332;2022-07-01T08:27:26;101455.09;;;23.51;42.78
39275;BME280;24980;48.874;2.332;2022-07-01T08:29:56;101460.17;;;23.52;42.77
39275;BME280;24980;48.874;2.332;2022-07-01T08:32:26;101458.70;;;23.54;42.76
39275;BME280;24980;48.874;2.332;2022-07-01T08:34:57;101464.53;;;23.55;42.75
39275;BME280;24980;48.874;2.332;2022-07-01T08:37:27;101460.22;;;23.54;42.78
39275;BME280;24980;48.874;2.332;2022-07-01T08:40:03;101457.12;;;23.52;42.80
39275;BME280;24980;48.874;2.332;2022-07-01T08:42:28;101458.03;;;23.46;42.85
39275;BME280;24980;48.874;2.332;2022-07-01T08:44:58;101462.62;;;23.39;42.88
39275;BME280;24980;48.874;2.332;2022-07-01T08:47:28;101462.44;;;23.32;42.87
39275;BME280;24980;48.874;2.332;2022-07-01T08:50:05;101465.56;;;23.32;42.83
39275;BME280;24980;48.874;2.332;2022-07-01T08:52:38;101473.02;;;23.34;42.74
39275;BME280;24980;48.874;2.332;2022-07-01T08:54:59;101470.78;;;23.36;42.65
39275;BME280;24980;48.874;2.332;2022-07-01T08:57:30;101471.94;;;23.39;42.60
39275;BME280;24980;48.874;2.332;2022-07-01T09:00:02;101475.02;;;23.40;42.55
39275;BME280;24980;48.874;2.332;2022-07-01T09:02:58;101486.91;;;23.41;42.53
39275;BME280;24980;48.874;2.332;2022-07-01T09:05:04;101482.59;;;23.43;42.51
39275;BME280;24980;48.874;2.332;2022-07-01T09:07:33;101480.79;;;23.45;42.49
39275;BME280;24980;48.874;2.332;2022-07-01T09:10:17;101479.95;;;23.46;42.48
39275;BME280;24980;48.874;2.332;2022-07-01T09:12:39;101482.98;;;23.47;42.48
39275;BME280;24980;48.874;2.332;2022-07-01T09:15:21;101470.09;;;23.47;42.49
39275;BME280;24980;48.874;2.332;2022-07-01T09:17:38;101467.34;;;23.47;42.50
39275;BME280;24980;48.874;2.332;2022-07-01T09:20:05;101472.38;;;23.48;42.52
39275;BME280;24980;48.874;2.332;2022-07-01T09:22:43;101475.94;;;23.49;42.52
39275;BME280;24980;48.874;2.332;2022-07-01T09:25:13;101485.80;;;23.51;42.53
39275;BME280;24980;48.874;2.332;2022-07-01T09:27:35;101489.02;;;23.52;42.54
39275;BME280;24980;48.874;2.332;2022-07-01T09:30:09;101493.92;;;23.53;42.55
39275;BME280;24980;48.874;2.332;2022-07-01T09:32:38;101491.95;;;23.54;42.55
39275;BME280;24980;48.874;2.332;2022-07-01T09:35:07;101494.48;;;23.55;42.58
39275;BME280;24980;48.874;2.332;2022-07-01T09:37:37;101485.44;;;23.56;42.57
39275;BME280;24980;48.874;2.332;2022-07-01T09:40:08;101485.66;;;23.57;42.56
39275;BME280;24980;48.874;2.332;2022-07-01T09:42:45;101497.11;;;23.56;42.57
39275;BME280;24980;48.874;2.332;2022-07-01T09:45:09;101489.84;;;23.55;42.59
39275;BME280;24980;48.874;2.332;2022-07-01T09:47:47;101491.53;;;23.55;42.60
39275;BME280;24980;48.874;2.332;2022-07-01T09:50:09;101494.83;;;23.56;42.60
39275;BME280;24980;48.874;2.332;2022-07-01T09:52:40;101487.94;;;23.58;42.58
39275;BME280;24980;48.874;2.332;2022-07-01T09:55:11;101484.73;;;23.58;42.56
39275;BME280;24980;48.874;2.332;2022-07-01T09:57:42;101490.81;;;23.57;42.58
39275;BME280;24980;48.874;2.332;2022-07-01T10:00:11;101488.23;;;23.55;42.59
39275;BME280;24980;48.874;2.332;2022-07-01T10:02:44;101489.75;;;23.54;42.59
39275;BME280;24980;48.874;2.332;2022-07-01T10:05:16;101486.79;;;23.56;42.58
39275;BME280;24980;48.874;2.332;2022-07-01T10:12:54;101489.86;;;23.60;42.51
39275;BME280;24980;48.874;2.332;2022-07-01T10:15:17;101503.23;;;23.61;42.51
39275;BME280;24980;48.874;2.332;2022-07-01T10:17:48;101493.50;;;23.62;42.51
39275;BME280;24980;48.874;2.332;2022-07-01T10:20:16;101499.84;;;23.63;42.50
39275;BME280;24980;48.874;2.332;2022-07-01T10:22:49;101491.69;;;23.66;42.49
39275;BME280;24980;48.874;2.332;2022-07-01T10:30:17;101497.71;;;23.72;42.42
39275;BME280;24980;48.874;2.332;2022-07-01T10:32:48;101494.83;;;23.71;42.45
39275;BME280;24980;48.874;2.332;2022-07-01T10:35:22;101496.70;;;23.72;42.44
39275;BME280;24980;48.874;2.332;2022-07-01T10:37:57;101493.56;;;23.71;42.46
39275;BME280;24980;48.874;2.332;2022-07-01T10:40:18;101490.27;;;23.73;42.45
39275;BME280;24980;48.874;2.332;2022-07-01T10:43:00;101489.08;;;23.72;42.46
39275;BME280;24980;48.874;2.332;2022-07-01T10:48:17;101488.66;;;23.72;42.46
39275;BME280;24980;48.874;2.332;2022-07-01T10:50:19;101486.80;;;23.72;42.46
39275;BME280;24980;48.874;2.332;2022-07-01T10:53:00;101486.54;;;23.71;42.45
39275;BME280;24980;48.874;2.332;2022-07-01T10:55:35;101489.08;;;23.70;42.46
39275;BME280;24980;48.874;2.332;2022-07-01T10:57:53;101488.58;;;23.71;42.45
39275;BME280;24980;48.874;2.332;2022-07-01T11:00:26;101487.89;;;23.72;42.43
39275;BME280;24980;48.874;2.332;2022-07-01T11:02:51;101488.62;;;23.73;42.38
39275;BME280;24980;48.874;2.332;2022-07-01T11:05:22;101495.98;;;23.74;42.35
39275;BME280;24980;48.874;2.332;2022-07-01T11:08:00;101492.21;;;23.71;42.36
39275;BME280;24980;48.874;2.332;2022-07-01T11:10:22;101496.61;;;23.70;42.35
39275;BME280;24980;48.874;2.332;2022-07-01T11:12:53;101500.25;;;23.70;42.36
39275;BME280;24980;48.874;2.332;2022-07-01T11:15:23;101497.66;;;23.69;42.37
39275;BME280;24980;48.874;2.332;2022-07-01T11:17:55;101496.87;;;23.71;42.36
39275;BME280;24980;48.874;2.332;2022-07-01T11:20:26;101492.47;;;23.73;42.34
39275;BME280;24980;48.874;2.332;2022-07-01T11:22:56;101486.25;;;23.75;42.33
39275;BME280;24980;48.874;2.332;2022-07-01T11:25:26;101489.30;;;23.76;42.32
39275;BME280;24980;48.874;2.332;2022-07-01T11:27:57;101489.09;;;23.76;42.31
39275;BME280;24980;48.874;2.332;2022-07-01T11:30:27;101477.92;;;23.78;42.26
39275;BME280;24980;48.874;2.332;2022-07-01T11:32:58;101481.36;;;23.81;42.24
39275;BME280;24980;48.874;2.332;2022-07-01T11:35:30;101486.23;;;23.83;42.21
39275;BME280;24980;48.874;2.332;2022-07-01T11:38:05;101489.31;;;23.82;42.22
39275;BME280;24980;48.874;2.332;2022-07-01T11:40:29;101490.75;;;23.81;42.22
39275;BME280;24980;48.874;2.332;2022-07-01T11:42:59;101490.41;;;23.80;42.20
39275;BME280;24980;48.874;2.332;2022-07-01T11:45:32;101487.91;;;23.79;42.17
39275;BME280;24980;48.874;2.332;2022-07-01T11:47:59;101492.36;;;23.79;42.16
39275;BME280;24980;48.874;2.332;2022-07-01T11:50:32;101492.28;;;23.81;42.13
39275;BME280;24980;48.874;2.332;2022-07-01T11:53:01;101490.80;;;23.85;42.09
39275;BME280;24980;48.874;2.332;2022-07-01T11:55:34;101490.34;;;23.88;42.04
39275;BME280;24980;48.874;2.332;2022-07-01T11:58:02;101491.41;;;23.89;41.98
39275;BME280;24980;48.874;2.332;2022-07-01T12:00:33;101497.03;;;23.88;41.95
39275;BME280;24980;48.874;2.332;2022-07-01T12:03:05;101494.44;;;23.85;41.94
39275;BME280;24980;48.874;2.332;2022-07-01T12:05:34;101499.35;;;23.83;41.94
39275;BME280;24980;48.874;2.332;2022-07-01T12:08:05;101500.45;;;23.83;41.92
39275;BME280;24980;48.874;2.332;2022-07-01T12:10:36;101497.87;;;23.82;41.91
39275;BME280;24980;48.874;2.332;2022-07-01T12:13:24;101502.88;;;23.86;41.90
39275;BME280;24980;48.874;2.332;2022-07-01T12:15:34;101500.89;;;23.90;41.86
39275;BME280;24980;48.874;2.332;2022-07-01T12:18:05;101502.80;;;23.94;41.83
39275;BME280;24980;48.874;2.332;2022-07-01T12:20:38;101503.02;;;23.95;41.78
39275;BME280;24980;48.874;2.332;2022-07-01T12:23:18;101498.62;;;23.96;41.74
39275;BME280;24980;48.874;2.332;2022-07-01T12:25:37;101493.80;;;23.97;41.71
39275;BME280;24980;48.874;2.332;2022-07-01T12:28:25;101493.37;;;23.98;41.67
39275;BME280;24980;48.874;2.332;2022-07-01T12:30:44;101492.06;;;23.99;41.64
39275;BME280;24980;48.874;2.332;2022-07-01T12:33:11;101497.31;;;24.01;41.61
39275;BME280;24980;48.874;2.332;2022-07-01T12:35:43;101491.81;;;23.99;41.57
39275;BME280;24980;48.874;2.332;2022-07-01T12:38:16;101491.30;;;23.99;41.57
39275;BME280;24980;48.874;2.332;2022-07-01T12:40:40;101488.77;;;23.99;41.55
39275;BME280;24980;48.874;2.332;2022-07-01T12:45:47;101485.33;;;23.98;41.50
39275;BME280;24980;48.874;2.332;2022-07-01T12:48:12;101488.12;;;23.98;41.52
39275;BME280;24980;48.874;2.332;2022-07-01T12:50:42;101480.67;;;23.97;41.50
39275;BME280;24980;48.874;2.332;2022-07-01T12:53:18;101482.02;;;23.98;41.49
39275;BME280;24980;48.874;2.332;2022-07-01T12:55:45;101479.11;;;24.00;41.48
39275;BME280;24980;48.874;2.332;2022-07-01T12:58:18;101481.73;;;23.99;41.49
39275;BME280;24980;48.874;2.332;2022-07-01T13:00:47;101484.52;;;24.01;41.50
39275;BME280;24980;48.874;2.332;2022-07-01T13:03:19;101489.86;;;24.01;41.50
39275;BME280;24980;48.874;2.332;2022-07-01T13:05:45;101488.55;;;24.02;41.51
39275;BME280;24980;48.874;2.332;2022-07-01T13:08:15;101495.07;;;24.03;41.50
39275;BME280;24980;48.874;2.332;2022-07-01T13:10:48;101497.95;;;24.03;41.48
39275;BME280;24980;48.874;2.332;2022-07-01T13:13:16;101497.62;;;24.02;41.47
39275;BME280;24980;48.874;2.332;2022-07-01T13:15:47;101498.97;;;24.02;41.47
39275;BME280;24980;48.874;2.332;2022-07-01T13:18:16;101501.38;;;24.00;41.47
39275;BME280;24980;48.874;2.332;2022-07-01T13:20:50;101501.62;;;23.99;41.48
39275;BME280;24980;48.874;2.332;2022-07-01T13:23:17;101501.24;;;23.98;41.49
39275;BME280;24980;48.874;2.332;2022-07-01T13:25:48;101502.56;;;23.99;41.49